createdAt,value
2023-05-07T00:00:03.678Z,980.85
2023-05-07T00:01:03.300Z,980.76
2023-05-07T00:02:03.855Z,980.76
2023-05-07T00:04:03.571Z,980.76
2023-05-07T00:05:03.459Z,980.82
2023-05-07T00:06:03.696Z,980.96
2023-05-07T00:07:03.394Z,980.79
2023-05-07T00:08:02.992Z,980.88
2023-05-07T00:09:02.970Z,980.91
2023-05-07T00:10:03.916Z,980.88
2023-05-07T00:12:03.159Z,981.05
2023-05-07T00:13:03.671Z,980.88
2023-05-07T00:14:03.465Z,980.76
2023-05-07T00:15:02.953Z,980.94
2023-05-07T00:16:03.725Z,980.77
2023-05-07T00:17:03.427Z,980.94
2023-05-07T00:18:03.048Z,980.77
2023-05-07T00:19:03.625Z,980.82
2023-05-07T00:21:03.266Z,980.74
2023-05-07T00:22:02.959Z,980.82
2023-05-07T00:23:03.021Z,980.80
2023-05-07T00:24:03.652Z,980.74
2023-05-07T00:25:03.208Z,980.91
2023-05-07T00:26:03.940Z,980.80
2023-05-07T00:28:03.616Z,980.88
2023-05-07T00:29:03.111Z,980.80
2023-05-07T00:30:03.718Z,980.77
2023-05-07T00:32:03.550Z,980.80
2023-05-07T00:33:03.166Z,980.85
2023-05-07T00:34:03.323Z,980.97
2023-05-07T00:35:02.946Z,980.88
2023-05-07T00:36:03.663Z,980.88
2023-05-07T00:37:06.669Z,980.83
2023-05-07T00:38:03.692Z,980.83
2023-05-07T00:40:02.943Z,980.83
2023-05-07T00:41:03.929Z,980.94
2023-05-07T00:42:03.585Z,980.74
2023-05-07T00:44:03.747Z,980.80
2023-05-07T00:46:03.925Z,980.74
2023-05-07T00:47:03.781Z,980.80
2023-05-07T00:48:03.319Z,980.97
2023-05-07T00:49:03.775Z,980.83
2023-05-07T00:50:03.758Z,980.86
2023-05-07T00:51:03.550Z,980.94
2023-05-07T00:53:03.707Z,980.83
2023-05-07T00:55:03.339Z,980.77
2023-05-07T00:56:03.811Z,980.83
2023-05-07T00:58:04.059Z,980.83
2023-05-07T00:59:03.353Z,980.72
2023-05-07T01:00:03.836Z,980.89
2023-05-07T01:01:03.560Z,980.55
2023-05-07T01:02:03.156Z,980.75
2023-05-07T01:03:03.603Z,980.66
2023-05-07T01:04:04.181Z,980.74
2023-05-07T01:05:04.161Z,980.69
2023-05-07T01:07:04.058Z,980.83
2023-05-07T01:09:03.880Z,980.72
2023-05-07T01:11:03.103Z,980.72
2023-05-07T01:12:03.737Z,980.77
2023-05-07T01:13:03.860Z,980.83
2023-05-07T01:14:03.499Z,980.72
2023-05-07T01:15:03.539Z,980.75
2023-05-07T01:16:02.975Z,980.80
2023-05-07T01:17:03.911Z,980.89
2023-05-07T01:18:03.539Z,980.83
2023-05-07T01:19:03.234Z,980.86
2023-05-07T01:20:03.230Z,980.77
2023-05-07T01:21:03.725Z,980.97
2023-05-07T01:22:03.707Z,980.86
2023-05-07T01:23:03.370Z,980.91
2023-05-07T01:24:03.631Z,980.89
2023-05-07T01:25:03.344Z,980.94
2023-05-07T01:26:03.384Z,980.91
2023-05-07T01:27:02.976Z,981.03
2023-05-07T01:28:03.690Z,980.89
2023-05-07T01:30:03.286Z,981.03
2023-05-07T01:31:03.862Z,981.00
2023-05-07T01:32:03.632Z,981.08
2023-05-07T01:33:03.203Z,980.97
2023-05-07T01:34:03.775Z,980.94
2023-05-07T01:35:03.812Z,981.00
2023-05-07T01:36:03.893Z,981.00
2023-05-07T01:37:03.431Z,981.00
2023-05-07T01:38:03.142Z,981.14
2023-05-07T01:39:03.793Z,981.11
2023-05-07T01:41:03.716Z,981.03
2023-05-07T01:42:03.642Z,981.00
2023-05-07T01:43:03.380Z,981.00
2023-05-07T01:44:03.017Z,981.06
2023-05-07T01:45:02.947Z,981.00
2023-05-07T01:46:03.644Z,980.94
2023-05-07T01:48:03.917Z,981.03
2023-05-07T01:49:03.607Z,981.06
2023-05-07T01:50:03.381Z,981.06
2023-05-07T01:51:03.212Z,981.03
2023-05-07T01:52:03.703Z,980.97
2023-05-07T01:53:03.773Z,981.03
2023-05-07T01:54:03.689Z,980.95
2023-05-07T01:55:03.682Z,981.09
2023-05-07T01:56:03.901Z,981.00
2023-05-07T01:58:03.023Z,981.12
2023-05-07T01:59:03.662Z,981.00
2023-05-07T02:01:03.228Z,981.06
2023-05-07T02:02:04.038Z,981.01
2023-05-07T02:04:03.906Z,981.12
2023-05-07T02:06:03.870Z,981.12
2023-05-07T02:08:03.342Z,981.06
2023-05-07T02:09:02.984Z,981.12
2023-05-07T02:10:03.522Z,981.12
2023-05-07T02:11:03.502Z,981.23
2023-05-07T02:12:02.946Z,981.12
2023-05-07T02:13:03.766Z,981.18
2023-05-07T02:14:03.762Z,981.21
2023-05-07T02:15:03.862Z,981.15
2023-05-07T02:16:03.454Z,981.09
2023-05-07T02:17:02.964Z,981.12
2023-05-07T02:18:03.573Z,981.04
2023-05-07T02:19:03.336Z,981.06
2023-05-07T02:20:03.297Z,981.18
2023-05-07T02:21:03.230Z,981.24
2023-05-07T02:22:03.829Z,981.06
2023-05-07T02:23:03.614Z,980.98
2023-05-07T02:24:03.409Z,981.15
2023-05-07T02:26:03.788Z,980.98
2023-05-07T02:27:03.520Z,981.21
2023-05-07T02:28:03.203Z,981.15
2023-05-07T02:29:03.808Z,981.10
2023-05-07T02:30:03.607Z,981.01
2023-05-07T02:31:03.036Z,981.15
2023-05-07T02:32:03.050Z,981.10
2023-05-07T02:33:03.738Z,981.12
2023-05-07T02:35:03.417Z,981.07
2023-05-07T02:36:03.000Z,981.07
2023-05-07T02:37:03.804Z,981.15
2023-05-07T02:38:03.819Z,981.13
2023-05-07T02:39:03.966Z,980.98
2023-05-07T02:40:03.951Z,981.04
2023-05-07T02:41:03.485Z,980.98
2023-05-07T02:43:03.587Z,981.01
2023-05-07T02:44:03.358Z,981.10
2023-05-07T02:45:03.689Z,981.07
2023-05-07T02:46:03.309Z,980.98
2023-05-07T02:47:03.839Z,980.98
2023-05-07T02:48:03.577Z,980.96
2023-05-07T02:49:03.552Z,981.04
2023-05-07T02:50:03.170Z,980.93
2023-05-07T02:51:03.726Z,980.96
2023-05-07T02:52:03.475Z,980.87
2023-05-07T02:53:03.910Z,980.87
2023-05-07T02:54:03.806Z,980.84
2023-05-07T02:55:03.916Z,980.96
2023-05-07T02:56:03.572Z,980.79
2023-05-07T02:57:03.740Z,980.76
2023-05-07T02:58:03.249Z,980.82
2023-05-07T02:59:03.792Z,980.76
2023-05-07T03:01:03.302Z,980.76
2023-05-07T03:02:03.318Z,980.68
2023-05-07T03:03:03.331Z,980.79
2023-05-07T03:04:03.955Z,980.82
2023-05-07T03:05:03.648Z,980.76
2023-05-07T03:06:03.170Z,980.74
2023-05-07T03:07:03.399Z,980.76
2023-05-07T03:08:03.538Z,980.79
2023-05-07T03:09:03.778Z,980.74
2023-05-07T03:11:03.766Z,980.74
2023-05-07T03:12:03.896Z,980.77
2023-05-07T03:13:03.549Z,980.74
2023-05-07T03:14:03.893Z,980.88
2023-05-07T03:15:03.570Z,980.74
2023-05-07T03:16:03.524Z,980.80
2023-05-07T03:17:03.456Z,980.80
2023-05-07T03:18:03.918Z,980.77
2023-05-07T03:19:03.924Z,980.74
2023-05-07T03:20:03.547Z,980.85
2023-05-07T03:21:03.294Z,980.77
2023-05-07T03:22:03.382Z,980.74
2023-05-07T03:23:03.286Z,980.80
2023-05-07T03:24:03.841Z,980.91
2023-05-07T03:25:03.411Z,980.80
2023-05-07T03:26:03.459Z,980.83
2023-05-07T03:27:03.584Z,980.85
2023-05-07T03:28:03.080Z,980.88
2023-05-07T03:29:03.077Z,980.94
2023-05-07T03:30:03.747Z,980.83
2023-05-07T03:32:02.950Z,980.68
2023-05-07T03:33:03.629Z,980.74
2023-05-07T03:34:03.268Z,980.83
2023-05-07T03:35:03.267Z,980.91
2023-05-07T03:37:02.982Z,980.86
2023-05-07T03:38:03.060Z,980.89
2023-05-07T03:39:03.103Z,980.80
2023-05-07T03:40:03.752Z,980.97
2023-05-07T03:41:03.633Z,980.77
2023-05-07T03:42:03.113Z,980.91
2023-05-07T03:43:03.608Z,980.80
2023-05-07T03:44:03.410Z,980.94
2023-05-07T03:45:03.924Z,980.80
2023-05-07T03:46:03.774Z,980.86
2023-05-07T03:48:03.548Z,980.92
2023-05-07T03:49:03.356Z,980.92
2023-05-07T03:50:03.947Z,980.83
2023-05-07T03:52:03.266Z,980.80
2023-05-07T03:53:02.985Z,980.89
2023-05-07T03:54:03.652Z,980.78
2023-05-07T03:56:03.675Z,980.81
2023-05-07T03:57:03.399Z,980.84
2023-05-07T03:58:03.326Z,980.81
2023-05-07T04:00:03.548Z,980.89
2023-05-07T04:01:03.273Z,980.89
2023-05-07T04:02:05.984Z,980.92
2023-05-07T04:03:03.337Z,980.87
2023-05-07T04:04:04.126Z,980.87
2023-05-07T04:05:03.844Z,981.01
2023-05-07T04:07:03.523Z,980.95
2023-05-07T04:08:03.552Z,980.78
2023-05-07T04:09:03.657Z,980.98
2023-05-07T04:10:03.708Z,981.04
2023-05-07T04:11:03.628Z,980.87
2023-05-07T04:13:03.945Z,980.87
2023-05-07T04:15:03.144Z,980.87
2023-05-07T04:16:03.891Z,980.89
2023-05-07T04:17:03.779Z,980.95
2023-05-07T04:18:03.640Z,980.98
2023-05-07T04:19:03.131Z,980.98
2023-05-07T04:20:03.204Z,981.06
2023-05-07T04:21:03.364Z,981.12
2023-05-07T04:22:02.983Z,980.98
2023-05-07T04:23:03.205Z,981.15
2023-05-07T04:24:03.774Z,980.98
2023-05-07T04:25:04.163Z,981.06
2023-05-07T04:27:03.780Z,981.03
2023-05-07T04:28:03.511Z,981.01
2023-05-07T04:29:03.461Z,981.01
2023-05-07T04:30:03.031Z,981.18
2023-05-07T04:31:03.078Z,980.95
2023-05-07T04:32:03.673Z,980.98
2023-05-07T04:33:03.661Z,981.00
2023-05-07T04:34:03.802Z,980.98
2023-05-07T04:35:03.664Z,980.95
2023-05-07T04:36:03.265Z,981.03
2023-05-07T04:37:03.760Z,981.06
2023-05-07T04:38:03.872Z,981.03
2023-05-07T04:39:03.139Z,981.06
2023-05-07T04:40:03.154Z,981.09
2023-05-07T04:41:03.849Z,981.09
2023-05-07T04:43:03.257Z,981.09
2023-05-07T04:44:03.499Z,981.15
2023-05-07T04:45:03.496Z,981.09
2023-05-07T04:46:03.217Z,981.03
2023-05-07T04:47:03.593Z,981.12
2023-05-07T04:48:03.712Z,981.12
2023-05-07T04:49:03.530Z,980.98
2023-05-07T04:51:02.901Z,981.03
2023-05-07T04:52:03.377Z,981.03
2023-05-07T04:53:03.541Z,981.12
2023-05-07T04:54:03.843Z,981.06
2023-05-07T04:56:03.656Z,981.29
2023-05-07T04:57:03.818Z,981.20
2023-05-07T04:58:03.576Z,981.12
2023-05-07T04:59:03.126Z,981.29
2023-05-07T05:00:03.729Z,981.12
2023-05-07T05:01:03.479Z,981.32
2023-05-07T05:02:03.635Z,981.29
2023-05-07T05:03:03.506Z,981.32
2023-05-07T05:04:03.573Z,981.18
2023-05-07T05:05:02.956Z,981.23
2023-05-07T05:06:03.332Z,981.26
2023-05-07T05:07:03.283Z,981.32
2023-05-07T05:08:03.389Z,981.23
2023-05-07T05:09:03.319Z,981.32
2023-05-07T05:10:03.035Z,981.46
2023-05-07T05:11:03.194Z,981.29
2023-05-07T05:12:03.942Z,981.29
2023-05-07T05:14:03.075Z,981.29
2023-05-07T05:15:03.850Z,981.29
2023-05-07T05:16:03.980Z,981.32
2023-05-07T05:18:03.922Z,981.40
2023-05-07T05:19:03.847Z,981.43
2023-05-07T05:20:03.625Z,981.43
2023-05-07T05:21:03.224Z,981.43
2023-05-07T05:22:03.292Z,981.55
2023-05-07T05:23:03.078Z,981.46
2023-05-07T05:24:03.851Z,981.65
2023-05-07T05:25:03.615Z,981.59
2023-05-07T05:26:03.473Z,981.49
2023-05-07T05:27:03.301Z,981.52
2023-05-07T05:29:03.058Z,981.49
2023-05-07T05:30:03.679Z,981.52
2023-05-07T05:31:03.861Z,981.40
2023-05-07T05:32:03.525Z,981.49
2023-05-07T05:33:03.620Z,981.59
2023-05-07T05:34:03.250Z,981.55
2023-05-07T05:35:03.920Z,981.57
2023-05-07T05:37:03.124Z,981.46
2023-05-07T05:38:03.186Z,981.46
2023-05-07T05:39:03.937Z,981.49
2023-05-07T05:41:03.491Z,981.57
2023-05-07T05:42:03.228Z,981.43
2023-05-07T05:43:03.904Z,981.44
2023-05-07T05:44:03.400Z,981.41
2023-05-07T05:45:03.148Z,981.49
2023-05-07T05:46:03.188Z,981.43
2023-05-07T05:47:03.082Z,981.49
2023-05-07T05:48:03.738Z,981.57
2023-05-07T05:49:03.729Z,981.35
2023-05-07T05:50:03.573Z,981.52
2023-05-07T05:51:04.318Z,981.41
2023-05-07T05:52:03.762Z,981.35
2023-05-07T05:53:03.271Z,981.59
2023-05-07T05:54:03.405Z,981.52
2023-05-07T05:55:03.346Z,981.55
2023-05-07T05:56:03.653Z,981.52
2023-05-07T05:57:02.992Z,981.46
2023-05-07T05:58:03.747Z,981.49
2023-05-07T05:59:03.886Z,981.59
2023-05-07T06:00:03.507Z,981.52
2023-05-07T06:01:03.234Z,981.43
2023-05-07T06:02:03.991Z,981.52
2023-05-07T06:03:03.699Z,981.57
2023-05-07T06:04:03.169Z,981.55
2023-05-07T06:05:03.957Z,981.57
2023-05-07T06:06:03.646Z,981.57
2023-05-07T06:07:03.172Z,981.52
2023-05-07T06:08:03.945Z,981.62
2023-05-07T06:10:03.717Z,981.52
2023-05-07T06:12:02.976Z,981.55
2023-05-07T06:13:03.727Z,981.71
2023-05-07T06:14:03.556Z,981.52
2023-05-07T06:15:03.500Z,981.65
2023-05-07T06:16:03.143Z,981.57
2023-05-07T06:17:03.920Z,981.62
2023-05-07T06:19:03.910Z,981.57
2023-05-07T06:21:03.175Z,981.59
2023-05-07T06:22:03.963Z,981.71
2023-05-07T06:23:03.840Z,981.62
2023-05-07T06:24:03.936Z,981.59
2023-05-07T06:25:03.462Z,981.56
2023-05-07T06:26:03.165Z,981.68
2023-05-07T06:27:03.672Z,981.59
2023-05-07T06:28:03.799Z,981.79
2023-05-07T06:29:03.607Z,981.68
2023-05-07T06:30:03.228Z,981.68
2023-05-07T06:31:03.808Z,981.71
2023-05-07T06:32:03.921Z,981.65
2023-05-07T06:34:03.063Z,981.71
2023-05-07T06:35:03.951Z,981.68
2023-05-07T06:37:03.169Z,981.82
2023-05-07T06:38:03.835Z,981.55
2023-05-07T06:40:03.215Z,981.74
2023-05-07T06:41:03.836Z,981.79
2023-05-07T06:42:03.911Z,981.80
2023-05-07T06:44:03.896Z,981.91
2023-05-07T06:45:03.811Z,981.71
2023-05-07T06:46:03.972Z,981.71
2023-05-07T06:48:03.240Z,981.74
2023-05-07T06:49:03.016Z,981.79
2023-05-07T06:50:03.613Z,981.74
2023-05-07T06:51:03.870Z,981.88
2023-05-07T06:52:03.370Z,981.88
2023-05-07T06:53:03.937Z,981.76
2023-05-07T06:55:03.680Z,981.93
2023-05-07T06:56:03.459Z,981.82
2023-05-07T06:57:03.649Z,981.85
2023-05-07T06:58:03.295Z,981.85
2023-05-07T06:59:03.936Z,981.85
2023-05-07T07:00:03.818Z,982.19
2023-05-07T07:01:03.536Z,981.91
2023-05-07T07:02:03.871Z,981.85
2023-05-07T07:04:03.788Z,982.05
2023-05-07T07:05:03.693Z,982.08
2023-05-07T07:06:03.605Z,981.99
2023-05-07T07:07:03.907Z,982.08
2023-05-07T07:08:03.557Z,982.08
2023-05-07T07:09:03.153Z,981.96
2023-05-07T07:10:03.786Z,982.11
2023-05-07T07:11:03.475Z,982.11
2023-05-07T07:12:03.483Z,982.05
2023-05-07T07:13:03.140Z,981.96
2023-05-07T07:14:03.049Z,981.99
2023-05-07T07:15:03.509Z,981.99
2023-05-07T07:17:04.048Z,982.02
2023-05-07T07:19:03.044Z,982.07
2023-05-07T07:20:03.791Z,982.07
2023-05-07T07:22:02.962Z,982.07
2023-05-07T07:23:03.708Z,982.04
2023-05-07T07:24:03.562Z,981.85
2023-05-07T07:25:03.970Z,981.99
2023-05-07T07:26:03.749Z,982.07
2023-05-07T07:27:03.746Z,982.02
2023-05-07T07:28:03.417Z,982.07
2023-05-07T07:29:03.506Z,981.99
2023-05-07T07:30:03.525Z,982.07
2023-05-07T07:31:03.251Z,982.10
2023-05-07T07:32:03.983Z,982.07
2023-05-07T07:33:03.964Z,982.16
2023-05-07T07:35:03.171Z,982.07
2023-05-07T07:36:03.150Z,982.01
2023-05-07T07:37:03.751Z,982.10
2023-05-07T07:38:03.582Z,982.15
2023-05-07T07:39:02.978Z,982.18
2023-05-07T07:40:03.731Z,982.07
2023-05-07T07:42:04.048Z,982.09
2023-05-07T07:44:03.359Z,982.04
2023-05-07T07:45:03.060Z,982.26
2023-05-07T07:46:03.015Z,982.15
2023-05-07T07:47:03.957Z,982.21
2023-05-07T07:49:03.779Z,982.29
2023-05-07T07:50:03.499Z,982.38
2023-05-07T07:52:03.329Z,982.23
2023-05-07T07:53:03.346Z,982.26
2023-05-07T07:54:03.467Z,982.15
2023-05-07T07:55:03.391Z,982.20
2023-05-07T07:56:06.134Z,982.15
2023-05-07T07:57:03.152Z,982.35
2023-05-07T07:58:03.789Z,982.29
2023-05-07T07:59:03.491Z,982.34
2023-05-07T08:00:03.557Z,982.34
2023-05-07T08:01:03.680Z,982.34
2023-05-07T08:02:03.436Z,982.37
2023-05-07T08:03:03.347Z,982.40
2023-05-07T08:04:04.180Z,982.28
2023-05-07T08:05:03.962Z,982.48
2023-05-07T08:07:03.600Z,982.57
2023-05-07T08:08:03.248Z,982.34
2023-05-07T08:09:03.947Z,982.37
2023-05-07T08:10:03.083Z,982.31
2023-05-07T08:11:03.291Z,982.31
2023-05-07T08:12:03.850Z,982.39
2023-05-07T08:14:03.063Z,982.36
2023-05-07T08:15:03.814Z,982.42
2023-05-07T08:17:03.241Z,982.42
2023-05-07T08:18:03.114Z,982.67
2023-05-07T08:19:03.723Z,982.53
2023-05-07T08:20:03.458Z,982.58
2023-05-07T08:21:03.239Z,982.50
2023-05-07T08:22:03.297Z,982.58
2023-05-07T08:23:03.908Z,982.61
2023-05-07T08:25:03.168Z,982.44
2023-05-07T08:26:03.913Z,982.58
2023-05-07T08:28:03.061Z,982.64
2023-05-07T08:29:03.712Z,982.58
2023-05-07T08:30:03.865Z,982.80
2023-05-07T08:31:03.366Z,982.61
2023-05-07T08:32:03.217Z,982.72
2023-05-07T08:33:03.590Z,982.80
2023-05-07T08:34:03.106Z,982.73
2023-05-07T08:35:03.154Z,982.80
2023-05-07T08:36:03.858Z,982.70
2023-05-07T08:37:05.022Z,982.75
2023-05-07T08:38:03.069Z,982.80
2023-05-07T08:39:03.157Z,982.83
2023-05-07T08:40:03.231Z,982.75
2023-05-07T08:41:03.492Z,982.80
2023-05-07T08:43:03.170Z,982.80
2023-05-07T08:44:03.993Z,982.80
2023-05-07T08:46:03.526Z,982.94
2023-05-07T08:47:04.782Z,982.91
2023-05-07T08:48:03.809Z,982.80
2023-05-07T08:49:03.089Z,982.83
2023-05-07T08:50:03.708Z,982.80
2023-05-07T08:51:03.844Z,982.94
2023-05-07T08:52:04.049Z,982.88
2023-05-07T08:54:03.328Z,983.03
2023-05-07T08:55:03.345Z,982.94
2023-05-07T08:56:03.781Z,982.94
2023-05-07T08:58:03.417Z,982.97
2023-05-07T08:59:02.991Z,982.94
2023-05-07T09:00:02.986Z,982.94
2023-05-07T09:01:03.733Z,982.99
2023-05-07T09:02:03.857Z,982.96
2023-05-07T09:03:03.540Z,983.05
2023-05-07T09:04:03.232Z,983.07
2023-05-07T09:05:03.791Z,983.10
2023-05-07T09:07:03.004Z,982.99
2023-05-07T09:08:03.583Z,983.10
2023-05-07T09:10:03.105Z,983.13
2023-05-07T09:11:03.675Z,983.18
2023-05-07T09:13:03.522Z,983.12
2023-05-07T09:14:03.482Z,983.07
2023-05-07T09:15:03.213Z,983.15
2023-05-07T09:16:03.297Z,983.12
2023-05-07T09:17:04.029Z,983.18
2023-05-07T09:18:03.814Z,983.26
2023-05-07T09:19:03.261Z,983.29
2023-05-07T09:20:03.870Z,983.20
2023-05-07T09:22:03.001Z,983.23
2023-05-07T09:23:03.138Z,983.26
2023-05-07T09:24:03.956Z,983.23
2023-05-07T09:25:03.986Z,983.36
2023-05-07T09:26:03.761Z,983.34
2023-05-07T09:27:03.636Z,983.34
2023-05-07T09:28:03.210Z,983.53
2023-05-07T09:29:03.915Z,983.34
2023-05-07T09:31:03.225Z,983.42
2023-05-07T09:32:04.104Z,983.47
2023-05-07T09:33:03.670Z,983.39
2023-05-07T09:34:04.227Z,983.31
2023-05-07T09:35:03.901Z,983.59
2023-05-07T09:37:03.542Z,983.53
2023-05-07T09:38:04.925Z,983.56
2023-05-07T09:40:03.745Z,983.50
2023-05-07T09:41:03.784Z,983.50
2023-05-07T09:42:03.584Z,983.47
2023-05-07T09:43:03.632Z,983.58
2023-05-07T09:44:03.308Z,983.67
2023-05-07T09:45:03.193Z,983.53
2023-05-07T09:46:03.279Z,983.70
2023-05-07T09:47:03.763Z,983.64
2023-05-07T09:48:03.832Z,983.73
2023-05-07T09:49:03.502Z,983.61
2023-05-07T09:50:03.169Z,983.58
2023-05-07T09:51:03.192Z,983.58
2023-05-07T09:52:03.737Z,983.52
2023-05-07T09:54:03.032Z,983.55
2023-05-07T09:55:03.062Z,983.58
2023-05-07T09:56:05.441Z,983.61
2023-05-07T09:57:03.597Z,983.66
2023-05-07T09:58:03.188Z,983.43
2023-05-07T09:59:03.225Z,983.75
2023-05-07T10:00:02.958Z,983.63
2023-05-07T10:01:03.149Z,983.52
2023-05-07T10:02:05.530Z,983.63
2023-05-07T10:03:03.731Z,983.60
2023-05-07T10:04:03.435Z,983.57
2023-05-07T10:05:03.410Z,983.60
2023-05-07T10:06:03.141Z,983.63
2023-05-07T10:07:03.314Z,983.63
2023-05-07T10:08:05.311Z,983.57
2023-05-07T10:09:03.619Z,983.66
2023-05-07T10:10:03.224Z,983.57
2023-05-07T10:11:03.927Z,983.63
2023-05-07T10:13:03.611Z,983.71
2023-05-07T10:14:05.348Z,983.80
2023-05-07T10:15:03.473Z,983.57
2023-05-07T10:16:03.054Z,983.74
2023-05-07T10:17:03.344Z,983.68
2023-05-07T10:18:04.174Z,983.57
2023-05-07T10:19:04.039Z,983.48
2023-05-07T10:20:04.960Z,983.63
2023-05-07T10:21:03.928Z,983.57
2023-05-07T10:23:03.365Z,983.63
2023-05-07T10:24:03.907Z,983.74
2023-05-07T10:25:03.953Z,983.60
2023-05-07T10:27:03.439Z,983.66
2023-05-07T10:28:03.394Z,983.60
2023-05-07T10:29:03.905Z,983.71
2023-05-07T10:31:03.542Z,983.74
2023-05-07T10:32:03.381Z,983.68
2023-05-07T10:33:03.343Z,983.63
2023-05-07T10:34:03.135Z,983.60
2023-05-07T10:35:03.118Z,983.54
2023-05-07T10:36:03.859Z,983.51
2023-05-07T10:37:03.825Z,983.60
2023-05-07T10:38:03.543Z,983.65
2023-05-07T10:39:03.297Z,983.51
2023-05-07T10:40:03.307Z,983.60
2023-05-07T10:41:03.010Z,983.74
2023-05-07T10:42:03.008Z,983.74
2023-05-07T10:43:03.697Z,983.63
2023-05-07T10:45:03.027Z,983.54
2023-05-07T10:46:02.995Z,983.60
2023-05-07T10:47:03.725Z,983.57
2023-05-07T10:48:11.255Z,983.56
2023-05-07T10:49:03.667Z,983.68
2023-05-07T10:50:03.372Z,983.56
2023-05-07T10:51:03.800Z,983.62
2023-05-07T10:52:03.493Z,983.56
2023-05-07T10:53:02.984Z,983.67
2023-05-07T10:54:02.952Z,983.73
2023-05-07T10:55:03.638Z,983.58
2023-05-07T10:56:03.336Z,983.58
2023-05-07T10:57:03.979Z,983.70
2023-05-07T10:59:02.930Z,983.67
2023-05-07T11:00:03.659Z,983.52
2023-05-07T11:01:03.787Z,983.61
2023-05-07T11:02:03.529Z,983.66
2023-05-07T11:03:03.746Z,983.58
2023-05-07T11:04:03.287Z,983.69
2023-05-07T11:05:03.099Z,983.69
2023-05-07T11:06:03.236Z,983.68
2023-05-07T11:07:03.496Z,983.77
2023-05-07T11:09:03.710Z,983.74
2023-05-07T11:10:03.806Z,983.79
2023-05-07T11:11:03.379Z,983.79
2023-05-07T11:12:03.084Z,983.82
2023-05-07T11:13:03.713Z,983.90
2023-05-07T11:14:03.454Z,983.84
2023-05-07T11:15:03.564Z,983.81
2023-05-07T11:16:04.061Z,983.90
2023-05-07T11:17:03.722Z,983.79
2023-05-07T11:18:03.370Z,983.87
2023-05-07T11:19:03.872Z,983.84
2023-05-07T11:21:03.599Z,983.79
2023-05-07T11:22:03.237Z,983.87
2023-05-07T11:23:04.192Z,983.81
2023-05-07T11:24:03.871Z,983.90
2023-05-07T11:25:03.754Z,983.93
2023-05-07T11:26:03.328Z,983.84
2023-05-07T11:28:02.968Z,983.79
2023-05-07T11:29:03.613Z,983.84
2023-05-07T11:31:03.191Z,983.76
2023-05-07T11:32:03.986Z,983.81
2023-05-07T11:33:03.866Z,983.73
2023-05-07T11:34:03.738Z,983.70
2023-05-07T11:35:03.148Z,983.67
2023-05-07T11:36:03.764Z,983.81
2023-05-07T11:38:03.073Z,983.52
2023-05-07T11:39:03.641Z,983.55
2023-05-07T11:41:03.305Z,983.63
2023-05-07T11:42:02.987Z,983.66
2023-05-07T11:43:03.633Z,983.63
2023-05-07T11:44:03.400Z,983.77
2023-05-07T11:46:03.269Z,983.68
2023-05-07T11:47:03.114Z,983.77
2023-05-07T11:48:03.298Z,983.77
2023-05-07T11:49:03.848Z,983.77
2023-05-07T11:50:03.786Z,983.97
2023-05-07T11:52:06.985Z,983.91
2023-05-07T11:54:03.230Z,983.85
2023-05-07T11:55:03.238Z,983.68
2023-05-07T11:56:03.259Z,983.68
2023-05-07T11:57:02.939Z,983.71
2023-05-07T11:58:03.021Z,983.73
2023-05-07T11:59:03.594Z,983.53
2023-05-07T12:00:03.379Z,983.64
2023-05-07T12:01:03.842Z,983.67
2023-05-07T12:03:03.741Z,983.73
2023-05-07T12:04:03.386Z,983.81
2023-05-07T12:05:03.173Z,983.73
2023-05-07T12:07:03.274Z,983.75
2023-05-07T12:08:03.395Z,983.90
2023-05-07T12:09:03.454Z,983.87
2023-05-07T12:10:03.969Z,983.92
2023-05-07T12:11:03.466Z,983.89
2023-05-07T12:12:02.923Z,983.92
2023-05-07T12:13:03.183Z,983.92
2023-05-07T12:15:03.726Z,983.86
2023-05-07T12:16:03.810Z,983.92
2023-05-07T12:17:03.656Z,983.94
2023-05-07T12:18:03.698Z,983.89
2023-05-07T12:19:03.778Z,983.97
2023-05-07T12:20:03.928Z,983.92
2023-05-07T12:21:03.384Z,983.89
2023-05-07T12:22:03.544Z,983.83
2023-05-07T12:23:03.136Z,983.95
2023-05-07T12:24:03.929Z,984.01
2023-05-07T12:26:07.321Z,983.89
2023-05-07T12:27:02.984Z,983.78
2023-05-07T12:28:03.476Z,983.86
2023-05-07T12:30:03.802Z,983.83
2023-05-07T12:31:03.382Z,984.01
2023-05-07T12:32:07.312Z,984.03
2023-05-07T12:33:03.730Z,983.86
2023-05-07T12:34:03.230Z,983.95
2023-05-07T12:35:03.806Z,983.95
2023-05-07T12:36:03.800Z,984.09
2023-05-07T12:37:03.446Z,983.92
2023-05-07T12:38:03.523Z,983.97
2023-05-07T12:39:03.158Z,983.97
2023-05-07T12:40:03.096Z,983.94
2023-05-07T12:41:03.121Z,983.89
2023-05-07T12:42:03.857Z,984.03
2023-05-07T12:43:03.467Z,983.91
2023-05-07T12:44:03.166Z,984.00
2023-05-07T12:45:03.840Z,983.91
2023-05-07T12:47:03.504Z,983.97
2023-05-07T12:49:03.848Z,984.00
2023-05-07T12:51:03.308Z,984.01
2023-05-07T12:52:03.286Z,983.98
2023-05-07T12:53:03.806Z,984.06
2023-05-07T12:54:03.527Z,983.95
2023-05-07T12:55:03.440Z,983.86
2023-05-07T12:56:02.974Z,984.04
2023-05-07T12:57:03.711Z,983.92
2023-05-07T12:59:03.203Z,983.95
2023-05-07T13:00:03.889Z,984.06
2023-05-07T13:02:03.160Z,983.83
2023-05-07T13:03:03.336Z,983.95
2023-05-07T13:04:03.822Z,984.03
2023-05-07T13:05:03.235Z,984.00
2023-05-07T13:06:03.374Z,983.91
2023-05-07T13:07:03.981Z,984.00
2023-05-07T13:09:03.668Z,984.00
2023-05-07T13:10:03.547Z,983.97
2023-05-07T13:11:03.796Z,983.85
2023-05-07T13:12:03.751Z,983.73
2023-05-07T13:13:03.377Z,983.94
2023-05-07T13:14:03.433Z,983.90
2023-05-07T13:15:03.261Z,983.82
2023-05-07T13:16:03.355Z,983.96
2023-05-07T13:17:03.991Z,983.90
2023-05-07T13:18:03.884Z,983.87
2023-05-07T13:20:03.695Z,983.75
2023-05-07T13:21:03.674Z,983.81
2023-05-07T13:22:03.354Z,983.93
2023-05-07T13:23:03.352Z,983.84
2023-05-07T13:24:03.917Z,983.84
2023-05-07T13:26:18.792Z,983.84
2023-05-07T13:27:03.747Z,983.86
2023-05-07T13:28:11.753Z,983.89
2023-05-07T13:29:02.976Z,983.98
2023-05-07T13:30:03.058Z,983.89
2023-05-07T13:31:03.556Z,984.04
2023-05-07T13:32:03.736Z,984.04
2023-05-07T13:33:03.998Z,983.98
2023-05-07T13:34:03.535Z,984.09
2023-05-07T13:36:03.009Z,984.10
2023-05-07T13:37:03.583Z,984.04
2023-05-07T13:38:03.695Z,984.01
2023-05-07T13:39:03.347Z,984.16
2023-05-07T13:40:03.189Z,984.07
2023-05-07T13:41:03.374Z,984.10
2023-05-07T13:42:03.204Z,984.07
2023-05-07T13:43:03.449Z,984.13
2023-05-07T13:44:03.423Z,984.13
2023-05-07T13:45:03.451Z,983.96
2023-05-07T13:46:03.682Z,984.07
2023-05-07T13:47:03.522Z,983.93
2023-05-07T13:48:03.311Z,983.96
2023-05-07T13:49:03.961Z,983.99
2023-05-07T13:51:02.990Z,983.99
2023-05-07T13:52:03.161Z,983.90
2023-05-07T13:53:03.154Z,983.90
2023-05-07T13:54:03.730Z,983.82
2023-05-07T13:56:03.808Z,984.08
2023-05-07T13:57:03.590Z,983.91
2023-05-07T13:58:07.780Z,983.85
2023-05-07T13:59:04.011Z,983.85
2023-05-07T14:00:03.544Z,983.99
2023-05-07T14:01:03.432Z,983.85
2023-05-07T14:02:03.047Z,983.85
2023-05-07T14:03:03.717Z,983.91
2023-05-07T14:05:03.195Z,983.59
2023-05-07T14:06:03.828Z,983.88
2023-05-07T14:07:03.882Z,983.70
2023-05-07T14:09:03.490Z,983.91
2023-05-07T14:11:03.609Z,983.79
2023-05-07T14:13:03.455Z,983.71
2023-05-07T14:15:03.075Z,983.82
2023-05-07T14:16:03.668Z,983.77
2023-05-07T14:18:03.229Z,983.82
2023-05-07T14:19:03.239Z,983.88
2023-05-07T14:20:03.974Z,983.85
2023-05-07T14:21:04.197Z,983.82
2023-05-07T14:23:03.807Z,983.85
2023-05-07T14:24:03.396Z,983.85
2023-05-07T14:25:07.291Z,983.85
2023-05-07T14:26:03.352Z,983.88
2023-05-07T14:27:02.984Z,983.85